createdAt,value
2019-03-26T00:01:49.505Z,6.73
2019-03-26T00:04:20.439Z,9.30
2019-03-26T00:06:52.487Z,10.43
2019-03-26T00:09:23.646Z,9.27
2019-03-26T00:11:54.776Z,8.87
2019-03-26T00:14:25.798Z,11.00
2019-03-26T00:16:56.814Z,12.60
2019-03-26T00:19:27.814Z,10.67
2019-03-26T00:21:59.134Z,9.60
2019-03-26T00:24:30.043Z,12.97
2019-03-26T00:27:01.032Z,11.57
2019-03-26T00:29:31.997Z,12.93
2019-03-26T00:32:02.939Z,12.63
2019-03-26T00:34:33.867Z,11.17
2019-03-26T00:37:05.078Z,11.87
2019-03-26T00:39:36.037Z,11.97
2019-03-26T00:42:07.104Z,13.03
2019-03-26T00:44:38.229Z,15.43
2019-03-26T00:47:09.527Z,12.43
2019-03-26T00:49:40.790Z,12.93
2019-03-26T00:52:11.733Z,14.90
2019-03-26T00:54:42.646Z,13.37
2019-03-26T00:57:13.598Z,13.77
2019-03-26T00:59:44.521Z,13.97
2019-03-26T01:02:15.742Z,16.90
2019-03-26T01:04:46.725Z,12.63
2019-03-26T01:07:17.674Z,14.97
2019-03-26T01:09:48.829Z,15.60
2019-03-26T01:12:19.761Z,15.97
2019-03-26T01:14:51.086Z,16.13
2019-03-26T01:17:22.031Z,17.50
2019-03-26T01:19:52.977Z,17.13
2019-03-26T01:22:23.888Z,14.13
2019-03-26T01:24:54.789Z,17.50
2019-03-26T01:27:26.282Z,14.27
2019-03-26T01:29:57.751Z,17.60
2019-03-26T01:32:28.652Z,14.87
2019-03-26T01:34:59.601Z,17.30
2019-03-26T01:37:30.566Z,16.50
2019-03-26T01:40:01.530Z,15.93
2019-03-26T01:42:32.445Z,15.03
2019-03-26T01:45:03.541Z,15.63
2019-03-26T01:47:34.468Z,15.37
2019-03-26T01:50:06.169Z,17.37
2019-03-26T01:52:37.110Z,19.63
2019-03-26T01:55:08.197Z,17.27
2019-03-26T01:57:40.309Z,17.17
2019-03-26T02:00:11.294Z,16.67
2019-03-26T02:02:42.205Z,20.17
2019-03-26T02:05:13.486Z,24.10
2019-03-26T02:07:44.465Z,20.87
2019-03-26T02:10:15.499Z,22.10
2019-03-26T02:12:48.649Z,18.20
2019-03-26T02:15:29.070Z,19.90
2019-03-26T02:18:00.937Z,22.03
2019-03-26T02:20:32.104Z,22.97
2019-03-26T02:23:03.078Z,20.87
2019-03-26T02:25:34.054Z,23.17
2019-03-26T02:28:05.161Z,21.40
2019-03-26T02:30:36.103Z,18.33
2019-03-26T02:33:07.030Z,24.43
2019-03-26T02:35:37.941Z,21.47
2019-03-26T02:38:08.903Z,27.70
2019-03-26T02:40:39.926Z,21.53
2019-03-26T02:43:10.839Z,21.30
2019-03-26T02:45:41.899Z,27.63
2019-03-26T02:48:13.947Z,22.40
2019-03-26T02:50:44.888Z,24.80
2019-03-26T02:53:15.813Z,20.30
2019-03-26T02:55:46.847Z,21.43
2019-03-26T02:58:17.825Z,21.10
2019-03-26T03:00:48.806Z,21.23
2019-03-26T03:03:19.837Z,22.40
2019-03-26T03:05:50.756Z,23.43
2019-03-26T03:08:21.731Z,22.00
2019-03-26T03:10:52.811Z,22.60
2019-03-26T03:13:23.720Z,22.17
2019-03-26T03:15:54.903Z,23.67
2019-03-26T03:18:25.890Z,19.77
2019-03-26T03:20:57.622Z,20.63
2019-03-26T03:23:28.601Z,20.77
2019-03-26T03:25:59.571Z,23.27
2019-03-26T03:28:30.602Z,20.00
2019-03-26T03:31:01.685Z,20.00
2019-03-26T03:33:32.829Z,19.73
2019-03-26T03:36:04.041Z,22.20
2019-03-26T03:38:34.971Z,22.43
2019-03-26T03:41:06.139Z,18.43
2019-03-26T03:43:37.107Z,19.87
2019-03-26T03:46:08.378Z,18.37
2019-03-26T03:48:39.747Z,18.67
2019-03-26T03:51:13.207Z,20.40
2019-03-26T03:53:44.197Z,20.10
2019-03-26T03:56:17.469Z,19.20
2019-03-26T03:58:50.212Z,20.80
2019-03-26T04:01:21.206Z,24.07
2019-03-26T04:03:52.155Z,18.07
2019-03-26T04:06:23.738Z,20.53
2019-03-26T04:08:55.879Z,20.50
2019-03-26T04:11:27.002Z,24.13
2019-03-26T04:13:57.913Z,18.23
2019-03-26T04:16:29.111Z,20.13
2019-03-26T04:19:00.098Z,17.23
2019-03-26T04:21:31.067Z,18.87
2019-03-26T04:24:02.083Z,20.13
2019-03-26T04:26:33.103Z,21.37
2019-03-26T04:29:04.158Z,22.80
2019-03-26T04:31:35.217Z,19.57
2019-03-26T04:34:06.265Z,17.70
2019-03-26T04:36:37.218Z,21.60
2019-03-26T04:39:08.518Z,21.13
2019-03-26T04:41:39.483Z,16.67
2019-03-26T04:44:10.533Z,19.00
2019-03-26T04:46:41.518Z,19.80
2019-03-26T04:49:12.455Z,19.50
2019-03-26T04:51:43.460Z,17.00
2019-03-26T04:54:15.112Z,18.47
2019-03-26T04:56:46.147Z,17.40
2019-03-26T04:59:17.441Z,17.57
2019-03-26T05:01:48.822Z,27.13
2019-03-26T05:04:19.798Z,22.17
2019-03-26T05:06:50.750Z,21.60
2019-03-26T05:09:21.752Z,26.13
2019-03-26T05:11:52.748Z,24.00
2019-03-26T05:14:23.702Z,28.07
2019-03-26T05:16:54.648Z,27.13
2019-03-26T05:19:25.827Z,30.27
2019-03-26T05:21:56.817Z,25.40
2019-03-26T05:24:27.752Z,28.97
2019-03-26T05:26:58.714Z,34.93
2019-03-26T05:29:29.605Z,31.03
2019-03-26T05:32:00.602Z,27.13
2019-03-26T05:34:31.983Z,32.23
2019-03-26T05:37:04.010Z,28.73
2019-03-26T05:39:34.927Z,36.20
2019-03-26T05:42:06.334Z,39.87
2019-03-26T05:44:37.253Z,40.30
2019-03-26T05:47:08.187Z,40.93
2019-03-26T05:49:39.074Z,42.57
2019-03-26T05:52:10.021Z,34.37
2019-03-26T05:54:40.925Z,46.23
2019-03-26T05:57:11.898Z,42.23
2019-03-26T05:59:42.894Z,48.00
2019-03-26T06:02:17.764Z,47.00
2019-03-26T06:04:46.486Z,50.33
2019-03-26T06:07:17.633Z,42.57
2019-03-26T06:09:48.553Z,37.10
2019-03-26T06:12:19.486Z,41.23
2019-03-26T06:14:51.548Z,40.33
2019-03-26T06:17:22.561Z,43.97
2019-03-26T06:19:53.779Z,40.87
2019-03-26T06:22:24.744Z,42.80
2019-03-26T06:24:55.675Z,40.83
2019-03-26T06:27:27.813Z,37.37
2019-03-26T06:29:58.765Z,38.77
2019-03-26T06:32:30.007Z,31.10
2019-03-26T06:35:01.139Z,25.03
2019-03-26T06:37:32.049Z,31.80
2019-03-26T06:40:03.267Z,29.77
2019-03-26T06:42:34.539Z,29.77
2019-03-26T06:45:08.721Z,28.57
2019-03-26T06:47:39.699Z,25.33
2019-03-26T06:50:12.619Z,31.23
2019-03-26T06:52:43.571Z,24.67
2019-03-26T06:55:14.855Z,22.13
2019-03-26T06:57:45.999Z,18.73
2019-03-26T07:00:22.498Z,28.37
2019-03-26T07:02:53.499Z,26.00
2019-03-26T07:05:24.522Z,18.10
2019-03-26T07:07:55.838Z,19.97
2019-03-26T07:10:28.867Z,17.83
2019-03-26T07:12:59.981Z,16.93
2019-03-26T07:15:31.063Z,20.23
2019-03-26T07:18:02.388Z,17.20
2019-03-26T07:20:33.329Z,20.97
2019-03-26T07:23:04.624Z,14.80
2019-03-26T07:25:35.564Z,13.90
2019-03-26T07:28:06.682Z,17.73
2019-03-26T07:30:42.500Z,13.53
2019-03-26T07:33:13.807Z,12.47
2019-03-26T07:35:44.796Z,9.33
2019-03-26T07:38:15.757Z,10.00
2019-03-26T07:40:46.930Z,12.70
2019-03-26T07:43:18.006Z,10.80
2019-03-26T07:45:48.896Z,11.63
2019-03-26T07:48:19.806Z,12.87
2019-03-26T07:50:51.078Z,14.20
2019-03-26T07:53:22.086Z,12.40
2019-03-26T07:55:52.977Z,10.13
2019-03-26T07:58:23.950Z,12.53
2019-03-26T08:00:54.902Z,14.10
2019-03-26T08:03:25.856Z,13.07
2019-03-26T08:05:56.760Z,13.03
2019-03-26T08:08:27.743Z,11.23
2019-03-26T08:10:58.701Z,15.47
2019-03-26T08:13:30.664Z,16.23
2019-03-26T08:16:01.601Z,16.77
2019-03-26T08:18:32.866Z,16.53
2019-03-26T08:21:03.805Z,11.43
2019-03-26T08:23:34.708Z,14.93
2019-03-26T08:26:05.646Z,15.97
2019-03-26T08:28:36.641Z,16.73
2019-03-26T08:31:07.852Z,11.53
2019-03-26T08:33:38.942Z,12.93
2019-03-26T08:36:09.941Z,12.90
2019-03-26T08:38:40.978Z,14.23
2019-03-26T08:41:11.991Z,8.20
2019-03-26T08:43:43.410Z,15.20
2019-03-26T08:46:14.505Z,18.10
2019-03-26T08:48:45.552Z,12.70
2019-03-26T08:51:16.614Z,12.00
2019-03-26T08:53:47.714Z,16.07
2019-03-26T08:56:19.152Z,13.07
2019-03-26T08:58:50.192Z,12.60
2019-03-26T09:01:21.163Z,15.80
2019-03-26T09:03:52.111Z,12.53
2019-03-26T09:06:23.378Z,14.00
2019-03-26T09:08:54.388Z,12.20
2019-03-26T09:11:25.813Z,12.43
2019-03-26T09:13:56.737Z,7.97
2019-03-26T09:16:27.970Z,13.47
2019-03-26T09:18:59.892Z,9.10
2019-03-26T09:21:32.634Z,6.97
2019-03-26T09:24:03.645Z,9.90
2019-03-26T09:26:34.624Z,5.50
2019-03-26T09:29:05.641Z,10.53
2019-03-26T09:31:36.549Z,9.20
2019-03-26T09:34:09.927Z,7.40
2019-03-26T09:36:40.446Z,6.17
2019-03-26T09:39:11.475Z,7.17
2019-03-26T09:41:42.525Z,7.67
2019-03-26T09:44:13.559Z,6.73
2019-03-26T09:46:44.577Z,11.40
2019-03-26T09:49:15.500Z,10.80
2019-03-26T09:51:46.465Z,9.00
2019-03-26T09:54:17.438Z,5.23
2019-03-26T09:56:48.474Z,12.67
2019-03-26T09:59:19.417Z,7.03
2019-03-26T10:01:50.511Z,11.87
2019-03-26T10:04:21.418Z,6.63
2019-03-26T10:06:52.422Z,9.83
2019-03-26T10:09:23.486Z,8.13
2019-03-26T10:11:54.711Z,8.20
2019-03-26T10:14:25.861Z,12.77
2019-03-26T10:16:57.139Z,6.23
2019-03-26T10:19:28.198Z,11.23
2019-03-26T10:21:59.340Z,12.57
2019-03-26T10:24:30.278Z,8.90
2019-03-26T10:27:01.811Z,9.67
2019-03-26T10:29:32.880Z,9.27
2019-03-26T10:32:03.823Z,10.67
2019-03-26T10:34:36.537Z,16.80
2019-03-26T10:37:07.942Z,7.83
2019-03-26T10:39:38.885Z,12.93
2019-03-26T10:42:09.932Z,9.57
2019-03-26T10:44:40.847Z,13.47
2019-03-26T10:47:11.813Z,8.50
2019-03-26T10:49:42.823Z,5.97
2019-03-26T10:52:14.149Z,9.17
2019-03-26T10:54:45.214Z,15.90
2019-03-26T10:57:16.301Z,23.23
2019-03-26T10:59:47.327Z,13.53
2019-03-26T11:02:18.557Z,13.77
2019-03-26T11:04:49.550Z,16.63
2019-03-26T11:07:20.573Z,26.50
2019-03-26T11:09:52.681Z,15.80
2019-03-26T11:12:23.628Z,10.37
2019-03-26T11:14:54.517Z,6.60
2019-03-26T11:17:25.530Z,9.43
2019-03-26T11:19:56.510Z,12.67
2019-03-26T11:22:27.405Z,9.57
2019-03-26T11:24:58.786Z,11.23
2019-03-26T11:27:30.906Z,13.57
2019-03-26T11:30:01.909Z,12.93
2019-03-26T11:32:33.107Z,14.30
2019-03-26T11:35:04.126Z,11.73
2019-03-26T11:37:36.072Z,11.97
2019-03-26T11:40:07.781Z,12.33
2019-03-26T11:42:38.911Z,8.70
2019-03-26T11:45:11.604Z,12.00
2019-03-26T11:47:42.549Z,22.07
2019-03-26T11:50:14.137Z,26.33
2019-03-26T11:52:45.124Z,15.67
2019-03-26T11:55:16.242Z,18.93
2019-03-26T11:57:47.376Z,14.00
2019-03-26T12:00:23.106Z,11.87
2019-03-26T12:02:54.193Z,8.47
2019-03-26T12:05:25.246Z,5.47
2019-03-26T12:07:56.345Z,4.27
2019-03-26T12:10:27.384Z,4.67
2019-03-26T12:12:58.708Z,8.07
2019-03-26T12:15:29.813Z,8.73
2019-03-26T12:18:01.755Z,5.57
2019-03-26T12:20:32.738Z,2.93
2019-03-26T12:23:03.782Z,7.13
2019-03-26T12:25:34.868Z,3.33
2019-03-26T12:28:05.829Z,2.40
2019-03-26T12:30:38.132Z,2.17
2019-03-26T12:33:09.606Z,5.77
2019-03-26T12:35:40.869Z,4.37
2019-03-26T12:38:21.371Z,3.40
2019-03-26T12:40:52.873Z,4.20
2019-03-26T12:43:24.203Z,2.90
2019-03-26T12:45:55.215Z,5.97
2019-03-26T12:48:26.366Z,3.47
2019-03-26T12:50:57.418Z,4.73
2019-03-26T12:53:29.468Z,4.27
2019-03-26T12:56:00.497Z,3.23
2019-03-26T12:58:36.065Z,6.03
2019-03-26T13:01:04.478Z,2.80
2019-03-26T13:03:35.737Z,6.43
2019-03-26T13:06:06.679Z,3.60
2019-03-26T13:08:37.695Z,4.93
2019-03-26T13:11:08.712Z,6.57
2019-03-26T13:13:39.751Z,7.37
2019-03-26T13:16:11.069Z,4.73
2019-03-26T13:18:41.998Z,5.73
2019-03-26T13:21:13.098Z,4.53
2019-03-26T13:23:44.069Z,4.73
2019-03-26T13:26:14.969Z,4.57
2019-03-26T13:28:45.925Z,5.17
2019-03-26T13:31:17.925Z,8.00
2019-03-26T13:33:48.824Z,7.20
2019-03-26T13:36:19.870Z,6.23
2019-03-26T13:38:50.823Z,4.47
2019-03-26T13:41:21.790Z,8.27
2019-03-26T13:43:52.690Z,8.20
2019-03-26T13:46:23.676Z,4.83
2019-03-26T13:48:54.615Z,4.50
2019-03-26T13:51:25.736Z,9.70
2019-03-26T13:53:56.794Z,5.50
2019-03-26T13:56:28.044Z,6.27
2019-03-26T13:58:59.002Z,6.47
2019-03-26T14:01:29.959Z,5.37
2019-03-26T14:04:02.190Z,10.87
2019-03-26T14:06:33.383Z,8.50
2019-03-26T14:09:05.963Z,9.00
2019-03-26T14:11:36.957Z,4.60
2019-03-26T14:14:08.015Z,6.73
2019-03-26T14:16:39.989Z,5.03
2019-03-26T14:19:11.138Z,6.93
2019-03-26T14:21:42.250Z,9.20
2019-03-26T14:24:13.627Z,6.97
2019-03-26T14:26:44.638Z,8.80
2019-03-26T14:29:16.101Z,8.20
2019-03-26T14:31:47.008Z,7.27
2019-03-26T14:34:17.973Z,10.73
2019-03-26T14:36:48.938Z,8.43
2019-03-26T14:39:20.891Z,6.50
2019-03-26T14:41:52.096Z,8.37
2019-03-26T14:44:23.216Z,9.77
2019-03-26T14:46:54.246Z,6.67
2019-03-26T14:49:25.584Z,7.10
2019-03-26T14:51:56.593Z,8.07
2019-03-26T14:54:27.646Z,4.30
2019-03-26T14:56:58.798Z,5.87
2019-03-26T14:59:29.773Z,4.40
2019-03-26T15:02:00.727Z,9.70
2019-03-26T15:04:31.749Z,6.00
2019-03-26T15:07:02.746Z,6.77
2019-03-26T15:09:33.829Z,5.23
2019-03-26T15:12:04.962Z,6.03
2019-03-26T15:14:35.886Z,7.63
2019-03-26T15:17:06.881Z,8.60
2019-03-26T15:19:38.270Z,5.50
2019-03-26T15:22:09.581Z,7.17
2019-03-26T15:24:41.559Z,7.77
2019-03-26T15:27:13.282Z,7.47
2019-03-26T15:29:44.730Z,8.40
2019-03-26T15:32:16.357Z,8.43
2019-03-26T15:34:47.442Z,5.60
2019-03-26T15:37:18.920Z,3.13
2019-03-26T15:39:50.291Z,8.47
2019-03-26T15:42:21.742Z,7.27
2019-03-26T15:44:54.286Z,6.37
2019-03-26T15:47:25.792Z,5.47
2019-03-26T15:49:57.440Z,9.20
2019-03-26T15:52:28.994Z,5.80
2019-03-26T15:55:00.556Z,5.73
2019-03-26T15:57:32.301Z,6.73
2019-03-26T16:00:04.860Z,6.93
2019-03-26T16:02:36.299Z,6.77
2019-03-26T16:05:08.237Z,5.77
2019-03-26T16:07:40.050Z,5.50
2019-03-26T16:10:12.229Z,6.57
2019-03-26T16:12:47.364Z,5.20
2019-03-26T16:15:19.027Z,6.73
2019-03-26T16:17:50.778Z,7.00
2019-03-26T16:20:22.470Z,8.03
2019-03-26T16:22:54.046Z,5.53
2019-03-26T16:25:25.747Z,6.57
2019-03-26T16:27:57.177Z,9.23
2019-03-26T16:30:30.569Z,7.17
2019-03-26T16:33:01.558Z,6.63
2019-03-26T16:35:33.082Z,7.80
2019-03-26T16:38:04.270Z,8.50
2019-03-26T16:40:35.595Z,6.30
2019-03-26T16:43:07.075Z,12.63
2019-03-26T16:45:38.147Z,7.80
2019-03-26T16:48:09.242Z,5.57
2019-03-26T16:50:40.228Z,8.33
2019-03-26T16:53:11.493Z,7.13
2019-03-26T16:55:42.498Z,8.43
2019-03-26T16:58:13.584Z,7.93
2019-03-26T17:00:44.543Z,5.77
2019-03-26T17:03:15.563Z,6.27
2019-03-26T17:05:46.542Z,11.17
2019-03-26T17:08:17.817Z,8.13
2019-03-26T17:10:48.818Z,9.50
2019-03-26T17:13:20.760Z,7.63
2019-03-26T17:15:51.726Z,10.70
2019-03-26T17:18:22.661Z,8.83
2019-03-26T17:20:53.616Z,7.37
2019-03-26T17:23:24.612Z,6.60
2019-03-26T17:25:55.533Z,7.70
2019-03-26T17:28:26.518Z,8.57
2019-03-26T17:30:57.541Z,8.43
2019-03-26T17:33:29.069Z,9.40
2019-03-26T17:36:01.297Z,5.17
2019-03-26T17:38:32.266Z,8.53
2019-03-26T17:41:03.496Z,9.93
2019-03-26T17:43:34.998Z,6.33
2019-03-26T17:46:06.001Z,8.77
2019-03-26T17:48:37.133Z,8.37
2019-03-26T17:51:08.114Z,7.20
2019-03-26T17:53:39.613Z,8.83
2019-03-26T17:56:11.407Z,7.43
2019-03-26T17:58:42.302Z,7.20
2019-03-26T18:01:13.666Z,11.00
2019-03-26T18:03:44.886Z,10.67
2019-03-26T18:06:16.190Z,14.07
2019-03-26T18:08:47.122Z,10.50
2019-03-26T18:11:18.055Z,5.00
2019-03-26T18:13:49.191Z,6.37
2019-03-26T18:16:20.179Z,7.67
2019-03-26T18:18:51.107Z,7.77
2019-03-26T18:21:22.046Z,10.83
2019-03-26T18:23:53.203Z,8.57
2019-03-26T18:26:24.136Z,7.93
2019-03-26T18:28:55.596Z,8.30
2019-03-26T18:31:26.638Z,8.23
2019-03-26T18:33:58.498Z,8.93
2019-03-26T18:36:29.443Z,8.53
2019-03-26T18:39:00.541Z,7.87
2019-03-26T18:41:31.790Z,7.43
2019-03-26T18:44:02.838Z,7.43
2019-03-26T18:46:33.749Z,8.60
2019-03-26T18:49:04.738Z,6.87
2019-03-26T18:51:35.787Z,6.40
2019-03-26T18:54:08.349Z,8.67
2019-03-26T18:56:40.086Z,7.13
2019-03-26T18:59:11.155Z,11.23
2019-03-26T19:01:42.229Z,6.27
2019-03-26T19:04:13.649Z,6.43
2019-03-26T19:06:46.279Z,6.50
2019-03-26T19:09:17.178Z,6.67
2019-03-26T19:11:48.176Z,10.57
2019-03-26T19:14:19.693Z,11.10
2019-03-26T19:16:50.632Z,6.97
2019-03-26T19:19:21.664Z,14.23
2019-03-26T19:21:52.610Z,11.17
2019-03-26T19:24:23.551Z,7.53
2019-03-26T19:26:54.489Z,13.90
2019-03-26T19:29:25.477Z,11.17
2019-03-26T19:31:56.526Z,12.60
2019-03-26T19:34:27.506Z,7.27
2019-03-26T19:36:58.519Z,6.60
2019-03-26T19:39:29.497Z,8.10
2019-03-26T19:42:00.779Z,10.60
2019-03-26T19:44:32.342Z,8.63
2019-03-26T19:47:03.364Z,9.27
2019-03-26T19:49:34.330Z,11.93
2019-03-26T19:52:05.333Z,6.03
2019-03-26T19:54:36.548Z,10.40
2019-03-26T19:57:07.518Z,9.60
2019-03-26T19:59:38.903Z,6.57
2019-03-26T20:02:10.141Z,8.40
2019-03-26T20:04:41.167Z,6.63
2019-03-26T20:07:12.433Z,6.77
2019-03-26T20:09:43.565Z,7.13
2019-03-26T20:12:14.761Z,7.80
2019-03-26T20:14:45.770Z,7.90
2019-03-26T20:17:16.833Z,6.83
2019-03-26T20:19:47.817Z,5.43
2019-03-26T20:22:18.807Z,10.23
2019-03-26T20:24:50.329Z,12.23
2019-03-26T20:27:21.261Z,8.43
2019-03-26T20:29:53.589Z,5.50
2019-03-26T20:32:24.786Z,14.27
2019-03-26T20:34:55.794Z,8.33
2019-03-26T20:37:26.799Z,10.37
2019-03-26T20:39:59.070Z,6.80
2019-03-26T20:42:30.041Z,9.13
2019-03-26T20:45:00.988Z,9.57
2019-03-26T20:47:32.064Z,10.37
2019-03-26T20:50:03.093Z,11.93
2019-03-26T20:52:34.507Z,9.07
2019-03-26T20:55:07.682Z,9.33
2019-03-26T20:57:38.833Z,11.07
2019-03-26T21:00:12.396Z,8.93
2019-03-26T21:02:44.008Z,7.53
2019-03-26T21:05:15.133Z,8.70
2019-03-26T21:07:47.789Z,10.33
2019-03-26T21:10:18.755Z,11.47
2019-03-26T21:12:49.845Z,12.03
2019-03-26T21:15:20.931Z,10.33
2019-03-26T21:17:51.844Z,16.43
2019-03-26T21:20:22.830Z,13.27
2019-03-26T21:22:54.038Z,12.37
2019-03-26T21:25:25.579Z,11.23
2019-03-26T21:27:56.678Z,12.90
2019-03-26T21:30:27.810Z,12.20
2019-03-26T21:32:58.710Z,11.83
2019-03-26T21:35:29.667Z,7.77
2019-03-26T21:38:00.618Z,13.00
2019-03-26T21:40:31.610Z,12.67
2019-03-26T21:43:02.622Z,11.67
2019-03-26T21:45:35.107Z,11.83
2019-03-26T21:48:07.170Z,11.73
2019-03-26T21:50:38.140Z,9.97
2019-03-26T21:53:09.179Z,13.17
2019-03-26T21:55:40.106Z,14.50
2019-03-26T21:58:10.993Z,13.30
2019-03-26T22:00:44.351Z,11.43
2019-03-26T22:03:15.150Z,11.50
2019-03-26T22:05:48.003Z,11.90
2019-03-26T22:08:19.148Z,11.47
2019-03-26T22:10:50.079Z,11.23
2019-03-26T22:13:21.002Z,10.77
2019-03-26T22:15:51.908Z,9.13
2019-03-26T22:18:22.796Z,12.10
2019-03-26T22:20:53.774Z,12.63
2019-03-26T22:23:24.710Z,12.50
2019-03-26T22:25:55.631Z,11.73
2019-03-26T22:28:26.917Z,12.30
2019-03-26T22:30:58.157Z,9.50
2019-03-26T22:33:29.101Z,14.30
2019-03-26T22:36:00.297Z,12.83
2019-03-26T22:38:31.214Z,12.53
2019-03-26T22:41:02.156Z,10.13
2019-03-26T22:43:33.371Z,11.40
2019-03-26T22:46:04.365Z,9.93
2019-03-26T22:48:35.290Z,12.83
2019-03-26T22:51:06.228Z,12.63
2019-03-26T22:53:37.174Z,10.20
2019-03-26T22:56:08.085Z,11.83
2019-03-26T22:58:39.017Z,8.83
2019-03-26T23:01:10.511Z,10.30
2019-03-26T23:03:43.194Z,14.13
2019-03-26T23:06:14.137Z,9.17
2019-03-26T23:08:45.253Z,10.43
2019-03-26T23:11:17.304Z,14.00
2019-03-26T23:13:48.486Z,10.73
2019-03-26T23:16:21.211Z,10.50
2019-03-26T23:18:52.145Z,9.97
2019-03-26T23:21:23.108Z,13.33
2019-03-26T23:23:55.065Z,10.87
2019-03-26T23:26:26.040Z,13.53
2019-03-26T23:28:56.937Z,15.90
2019-03-26T23:31:27.877Z,15.03
2019-03-26T23:33:59.017Z,13.47
2019-03-26T23:36:30.003Z,8.00
2019-03-26T23:39:00.934Z,13.27
2019-03-26T23:41:33.758Z,11.60
2019-03-26T23:44:04.918Z,9.27
2019-03-26T23:46:35.925Z,15.27
2019-03-26T23:49:06.928Z,17.40
2019-03-26T23:51:38.134Z,13.20
2019-03-26T23:54:09.065Z,12.27
2019-03-26T23:56:40.009Z,12.10
2019-03-26T23:59:10.916Z,12.87
